Terminal Aerodrome Forecast
Issued by NWS Sioux Falls, SD

Home | Current Version | Previous Version | Graphics & Text | Print | Product List | Glossary Off
Versions: 1 2 3 4 5 6 7 8 9 10 11 12 13 14 15

798
FTUS43 KFSD 152333
TAFHON
TAF
KHON 152333Z 1600/1624 36006KT P6SM SKC
     FM160500 07004KT P6SM FEW250
     FM161200 14011KT P6SM BKN200
     FM161500 15018G29KT P6SM OVC200
     FM161800 16022G35KT P6SM BKN200
     FM162200 16018G26KT P6SM SCT250=

USA.gov is the U.S. government's official web portal to all federal, state and local government web resources and services.